sensor_id;sensor_type;location;lat;lon;timestamp;pressure;altitude;pressure_sealevel;temperature;humidity
64453;BME280;50813;52.654;6.766;2023-03-19T00:00:07;101024.0;;;11.83;100.0
64453;BME280;50813;52.654;6.766;2023-03-19T00:01:44;101020.0;;;11.87;100.0
64453;BME280;50813;52.654;6.766;2023-03-19T00:04:57;101023.0;;;11.78;100.0
64453;BME280;50813;52.654;6.766;2023-03-19T00:06:33;101026.0;;;11.79;100.0
64453;BME280;50813;52.654;6.766;2023-03-19T00:08:10;101021.0;;;11.96;100.0
64453;BME280;50813;52.654;6.766;2023-03-19T00:11:22;101018.0;;;11.98;100.0
64453;BME280;50813;52.654;6.766;2023-03-19T00:12:58;101014.0;;;11.99;100.0
64453;BME280;50813;52.654;6.766;2023-03-19T00:14:34;101021.0;;;11.95;100.0
64453;BME280;50813;52.654;6.766;2023-03-19T00:17:47;101017.0;;;12.0;100.0
64453;BME280;50813;52.654;6.766;2023-03-19T00:19:23;101024.0;;;11.89;100.0
64453;BME280;50813;52.654;6.766;2023-03-19T00:20:59;101022.0;;;11.82;100.0
64453;BME280;50813;52.654;6.766;2023-03-19T00:24:11;101021.0;;;11.72;100.0
64453;BME280;50813;52.654;6.766;2023-03-19T00:25:47;101021.0;;;11.88;100.0
64453;BME280;50813;52.654;6.766;2023-03-19T00:27:23;101023.0;;;11.88;100.0
64453;BME280;50813;52.654;6.766;2023-03-19T00:29:00;101021.0;;;12.02;100.0
64453;BME280;50813;52.654;6.766;2023-03-19T00:32:13;101030.0;;;11.88;100.0
64453;BME280;50813;52.654;6.766;2023-03-19T00:33:49;101038.0;;;11.68;100.0
64453;BME280;50813;52.654;6.766;2023-03-19T00:35:26;101033.0;;;11.69;100.0
64453;BME280;50813;52.654;6.766;2023-03-19T00:38:39;101036.0;;;11.62;100.0
64453;BME280;50813;52.654;6.766;2023-03-19T00:40:15;101037.0;;;11.57;100.0
64453;BME280;50813;52.654;6.766;2023-03-19T00:41:52;101033.0;;;11.62;100.0
64453;BME280;50813;52.654;6.766;2023-03-19T00:45:06;101040.0;;;11.66;100.0
64453;BME280;50813;52.654;6.766;2023-03-19T00:46:43;101039.0;;;11.55;100.0
64453;BME280;50813;52.654;6.766;2023-03-19T00:48:20;101044.0;;;11.66;100.0
64453;BME280;50813;52.654;6.766;2023-03-19T00:49:57;101033.0;;;11.71;100.0
64453;BME280;50813;52.654;6.766;2023-03-19T00:53:09;101034.0;;;11.67;100.0
64453;BME280;50813;52.654;6.766;2023-03-19T00:54:45;101034.0;;;11.82;100.0
64453;BME280;50813;52.654;6.766;2023-03-19T00:56:22;101037.0;;;11.75;100.0
64453;BME280;50813;52.654;6.766;2023-03-19T00:59:35;101038.0;;;11.61;100.0
64453;BME280;50813;52.654;6.766;2023-03-19T01:01:14;101039.0;;;11.84;100.0
64453;BME280;50813;52.654;6.766;2023-03-19T01:02:51;101036.0;;;11.82;100.0
64453;BME280;50813;52.654;6.766;2023-03-19T01:04:27;101030.0;;;11.98;100.0
64453;BME280;50813;52.654;6.766;2023-03-19T01:07:42;101032.0;;;11.86;100.0
64453;BME280;50813;52.654;6.766;2023-03-19T01:09:18;101030.0;;;11.97;100.0
64453;BME280;50813;52.654;6.766;2023-03-19T01:10:55;101033.0;;;11.92;100.0
64453;BME280;50813;52.654;6.766;2023-03-19T01:14:15;101036.0;;;11.86;100.0
64453;BME280;50813;52.654;6.766;2023-03-19T01:15:52;101034.0;;;11.86;100.0
64453;BME280;50813;52.654;6.766;2023-03-19T01:17:28;101041.0;;;11.91;100.0
64453;BME280;50813;52.654;6.766;2023-03-19T01:20:40;101042.0;;;11.82;100.0
64453;BME280;50813;52.654;6.766;2023-03-19T01:22:18;101042.0;;;11.6;100.0
64453;BME280;50813;52.654;6.766;2023-03-19T01:23:55;101044.0;;;11.57;100.0
64453;BME280;50813;52.654;6.766;2023-03-19T01:25:33;101044.0;;;11.62;100.0
64453;BME280;50813;52.654;6.766;2023-03-19T01:28:47;101037.0;;;11.58;100.0
64453;BME280;50813;52.654;6.766;2023-03-19T01:31:59;101044.0;;;11.55;100.0
64453;BME280;50813;52.654;6.766;2023-03-19T01:35:12;101044.0;;;11.54;100.0
64453;BME280;50813;52.654;6.766;2023-03-19T01:36:49;101047.0;;;11.57;100.0
64453;BME280;50813;52.654;6.766;2023-03-19T01:38:26;101044.0;;;11.61;100.0
64453;BME280;50813;52.654;6.766;2023-03-19T01:40:02;101048.0;;;11.54;100.0
64453;BME280;50813;52.654;6.766;2023-03-19T01:43:18;101045.0;;;11.6;100.0
64453;BME280;50813;52.654;6.766;2023-03-19T01:44:55;101044.0;;;11.61;100.0
64453;BME280;50813;52.654;6.766;2023-03-19T01:46:33;101046.0;;;11.52;100.0
64453;BME280;50813;52.654;6.766;2023-03-19T01:49:59;101048.0;;;11.46;100.0
64453;BME280;50813;52.654;6.766;2023-03-19T01:51:39;101042.0;;;11.47;100.0
64453;BME280;50813;52.654;6.766;2023-03-19T01:53:18;101041.0;;;11.45;100.0
64453;BME280;50813;52.654;6.766;2023-03-19T01:54:58;101039.0;;;11.4;100.0
64453;BME280;50813;52.654;6.766;2023-03-19T01:58:16;101037.0;;;11.33;100.0
64453;BME280;50813;52.654;6.766;2023-03-19T01:59:56;101034.0;;;11.22;100.0
64453;BME280;50813;52.654;6.766;2023-03-19T02:01:40;101032.0;;;11.3;100.0
64453;BME280;50813;52.654;6.766;2023-03-19T02:03:21;101030.0;;;11.33;100.0
64453;BME280;50813;52.654;6.766;2023-03-19T02:06:42;101026.0;;;11.39;100.0
64453;BME280;50813;52.654;6.766;2023-03-19T02:08:21;101026.0;;;11.24;100.0
64453;BME280;50813;52.654;6.766;2023-03-19T02:10:00;101030.0;;;11.16;100.0
64453;BME280;50813;52.654;6.766;2023-03-19T02:11:37;101028.0;;;11.21;100.0
64453;BME280;50813;52.654;6.766;2023-03-19T02:14:51;101019.0;;;11.22;100.0
64453;BME280;50813;52.654;6.766;2023-03-19T02:16:28;101023.0;;;11.31;100.0
64453;BME280;50813;52.654;6.766;2023-03-19T02:18:06;101027.0;;;11.38;100.0
64453;BME280;50813;52.654;6.766;2023-03-19T02:21:26;101025.0;;;11.3;100.0
64453;BME280;50813;52.654;6.766;2023-03-19T02:23:10;101026.0;;;11.27;100.0
64453;BME280;50813;52.654;6.766;2023-03-19T02:24:52;101020.0;;;11.15;100.0
64453;BME280;50813;52.654;6.766;2023-03-19T02:26:32;101024.0;;;11.19;100.0
64453;BME280;50813;52.654;6.766;2023-03-19T02:28:09;101022.0;;;11.12;100.0
64453;BME280;50813;52.654;6.766;2023-03-19T02:31:23;101027.0;;;11.19;100.0
64453;BME280;50813;52.654;6.766;2023-03-19T02:32:59;101024.0;;;11.04;100.0
64453;BME280;50813;52.654;6.766;2023-03-19T02:34:38;101024.0;;;11.12;100.0
64453;BME280;50813;52.654;6.766;2023-03-19T02:37:55;101024.0;;;11.12;100.0
64453;BME280;50813;52.654;6.766;2023-03-19T02:39:35;101024.0;;;11.14;100.0
64453;BME280;50813;52.654;6.766;2023-03-19T02:41:14;101027.0;;;11.2;100.0
64453;BME280;50813;52.654;6.766;2023-03-19T02:42:50;101025.0;;;11.14;100.0
64453;BME280;50813;52.654;6.766;2023-03-19T02:46:06;101030.0;;;11.17;100.0
64453;BME280;50813;52.654;6.766;2023-03-19T02:47:44;101028.0;;;11.13;100.0
64453;BME280;50813;52.654;6.766;2023-03-19T02:49:20;101027.0;;;11.23;100.0
64453;BME280;50813;52.654;6.766;2023-03-19T02:52:34;101026.0;;;11.23;100.0
64453;BME280;50813;52.654;6.766;2023-03-19T02:54:11;101023.0;;;11.19;100.0
64453;BME280;50813;52.654;6.766;2023-03-19T02:55:48;101025.0;;;11.17;100.0
64453;BME280;50813;52.654;6.766;2023-03-19T02:57:26;101026.0;;;11.05;100.0
64453;BME280;50813;52.654;6.766;2023-03-19T03:00:40;101028.0;;;11.04;100.0
64453;BME280;50813;52.654;6.766;2023-03-19T03:02:17;101033.0;;;10.93;100.0
64453;BME280;50813;52.654;6.766;2023-03-19T03:03:55;101033.0;;;11.03;100.0
64453;BME280;50813;52.654;6.766;2023-03-19T03:07:09;101037.0;;;11.01;100.0
64453;BME280;50813;52.654;6.766;2023-03-19T03:08:46;101034.0;;;11.0;100.0
64453;BME280;50813;52.654;6.766;2023-03-19T03:10:23;101036.0;;;10.94;100.0
64453;BME280;50813;52.654;6.766;2023-03-19T03:13:36;101038.0;;;10.88;100.0
64453;BME280;50813;52.654;6.766;2023-03-19T03:15:12;101041.0;;;10.92;100.0
64453;BME280;50813;52.654;6.766;2023-03-19T03:16:48;101037.0;;;10.85;100.0
64453;BME280;50813;52.654;6.766;2023-03-19T03:18:25;101043.0;;;10.86;100.0
64453;BME280;50813;52.654;6.766;2023-03-19T03:21:39;101038.0;;;10.91;100.0
64453;BME280;50813;52.654;6.766;2023-03-19T03:23:15;101041.0;;;10.89;100.0
64453;BME280;50813;52.654;6.766;2023-03-19T03:24:51;101043.0;;;10.89;100.0
64453;BME280;50813;52.654;6.766;2023-03-19T03:28:03;101049.0;;;10.94;100.0
64453;BME280;50813;52.654;6.766;2023-03-19T03:29:40;101051.0;;;11.0;100.0
64453;BME280;50813;52.654;6.766;2023-03-19T03:31:17;101055.0;;;10.97;100.0
64453;BME280;50813;52.654;6.766;2023-03-19T03:34:30;101056.0;;;10.98;100.0
64453;BME280;50813;52.654;6.766;2023-03-19T03:36:06;101058.0;;;11.01;100.0
64453;BME280;50813;52.654;6.766;2023-03-19T03:37:43;101065.0;;;11.06;100.0
64453;BME280;50813;52.654;6.766;2023-03-19T03:39:19;101067.0;;;11.04;100.0
64453;BME280;50813;52.654;6.766;2023-03-19T03:42:33;101067.0;;;11.0;100.0
64453;BME280;50813;52.654;6.766;2023-03-19T03:44:10;101070.0;;;11.04;100.0
64453;BME280;50813;52.654;6.766;2023-03-19T03:45:47;101069.0;;;11.1;100.0
64453;BME280;50813;52.654;6.766;2023-03-19T03:49:00;101067.0;;;11.17;100.0
64453;BME280;50813;52.654;6.766;2023-03-19T03:50:37;101067.0;;;11.12;100.0
64453;BME280;50813;52.654;6.766;2023-03-19T03:52:14;101064.0;;;11.13;100.0
64453;BME280;50813;52.654;6.766;2023-03-19T03:55:26;101063.0;;;11.11;100.0
64453;BME280;50813;52.654;6.766;2023-03-19T03:57:03;101063.0;;;11.12;100.0
64453;BME280;50813;52.654;6.766;2023-03-19T03:58:40;101062.0;;;11.14;100.0
64453;BME280;50813;52.654;6.766;2023-03-19T04:00:17;101059.0;;;11.1;100.0
64453;BME280;50813;52.654;6.766;2023-03-19T04:03:30;101063.0;;;11.06;100.0
64453;BME280;50813;52.654;6.766;2023-03-19T04:05:06;101064.0;;;11.07;100.0
64453;BME280;50813;52.654;6.766;2023-03-19T04:06:43;101068.0;;;11.1;100.0
64453;BME280;50813;52.654;6.766;2023-03-19T04:09:56;101070.0;;;11.06;100.0
64453;BME280;50813;52.654;6.766;2023-03-19T04:11:33;101078.0;;;11.21;100.0
64453;BME280;50813;52.654;6.766;2023-03-19T04:13:11;101077.0;;;11.18;100.0
64453;BME280;50813;52.654;6.766;2023-03-19T04:16:24;101077.0;;;11.08;100.0
64453;BME280;50813;52.654;6.766;2023-03-19T04:18:01;101073.0;;;11.02;100.0
64453;BME280;50813;52.654;6.766;2023-03-19T04:19:38;101071.0;;;10.97;100.0
64453;BME280;50813;52.654;6.766;2023-03-19T04:21:14;101073.0;;;11.03;100.0
64453;BME280;50813;52.654;6.766;2023-03-19T04:24:27;101072.0;;;11.06;100.0
64453;BME280;50813;52.654;6.766;2023-03-19T04:26:05;101071.0;;;10.98;100.0
64453;BME280;50813;52.654;6.766;2023-03-19T04:27:41;101069.0;;;11.01;100.0
64453;BME280;50813;52.654;6.766;2023-03-19T04:30:58;101073.0;;;10.94;100.0
64453;BME280;50813;52.654;6.766;2023-03-19T04:32:35;101073.0;;;10.94;100.0
64453;BME280;50813;52.654;6.766;2023-03-19T04:34:11;101072.0;;;10.96;100.0
64453;BME280;50813;52.654;6.766;2023-03-19T04:35:47;101073.0;;;10.96;100.0
64453;BME280;50813;52.654;6.766;2023-03-19T04:38:59;101073.0;;;10.84;100.0
64453;BME280;50813;52.654;6.766;2023-03-19T04:40:35;101071.0;;;10.84;100.0
64453;BME280;50813;52.654;6.766;2023-03-19T04:42:12;101070.0;;;10.81;100.0
64453;BME280;50813;52.654;6.766;2023-03-19T04:45:25;101070.0;;;10.82;100.0
64453;BME280;50813;52.654;6.766;2023-03-19T04:47:02;101071.0;;;10.87;100.0
64453;BME280;50813;52.654;6.766;2023-03-19T04:48:38;101075.0;;;10.87;100.0
64453;BME280;50813;52.654;6.766;2023-03-19T04:51:50;101073.0;;;10.91;100.0
64453;BME280;50813;52.654;6.766;2023-03-19T04:53:27;101072.0;;;10.86;100.0
64453;BME280;50813;52.654;6.766;2023-03-19T04:55:04;101069.0;;;10.83;100.0
64453;BME280;50813;52.654;6.766;2023-03-19T04:56:43;101075.0;;;10.86;100.0
64453;BME280;50813;52.654;6.766;2023-03-19T04:59:57;101083.0;;;10.92;100.0
64453;BME280;50813;52.654;6.766;2023-03-19T05:01:33;101076.0;;;10.8;100.0
64453;BME280;50813;52.654;6.766;2023-03-19T05:03:09;101080.0;;;10.85;100.0
64453;BME280;50813;52.654;6.766;2023-03-19T05:06:22;101081.0;;;10.88;100.0
64453;BME280;50813;52.654;6.766;2023-03-19T05:07:58;101083.0;;;10.82;100.0
64453;BME280;50813;52.654;6.766;2023-03-19T05:09:34;101086.0;;;10.87;100.0
64453;BME280;50813;52.654;6.766;2023-03-19T05:12:47;101088.0;;;10.93;100.0
64453;BME280;50813;52.654;6.766;2023-03-19T05:14:24;101084.0;;;10.82;100.0
64453;BME280;50813;52.654;6.766;2023-03-19T05:16:00;101085.0;;;10.9;100.0
64453;BME280;50813;52.654;6.766;2023-03-19T05:19:13;101086.0;;;10.92;100.0
64453;BME280;50813;52.654;6.766;2023-03-19T05:20:49;101087.0;;;10.92;100.0
64453;BME280;50813;52.654;6.766;2023-03-19T05:22:27;101089.0;;;10.89;100.0
64453;BME280;50813;52.654;6.766;2023-03-19T05:24:04;101096.0;;;10.86;100.0
64453;BME280;50813;52.654;6.766;2023-03-19T05:27:17;101095.0;;;10.86;100.0
64453;BME280;50813;52.654;6.766;2023-03-19T05:28:54;101096.0;;;10.74;100.0
64453;BME280;50813;52.654;6.766;2023-03-19T05:30:30;101098.0;;;10.73;100.0
64453;BME280;50813;52.654;6.766;2023-03-19T05:33:44;101101.0;;;10.88;100.0
64453;BME280;50813;52.654;6.766;2023-03-19T05:35:21;101105.0;;;10.78;100.0
64453;BME280;50813;52.654;6.766;2023-03-19T05:36:58;101100.0;;;10.89;100.0
64453;BME280;50813;52.654;6.766;2023-03-19T05:40:11;101102.0;;;10.82;100.0
64453;BME280;50813;52.654;6.766;2023-03-19T05:41:48;101108.0;;;10.82;100.0
64453;BME280;50813;52.654;6.766;2023-03-19T05:43:25;101111.0;;;10.87;100.0
64453;BME280;50813;52.654;6.766;2023-03-19T05:45:02;101111.0;;;10.83;100.0
64453;BME280;50813;52.654;6.766;2023-03-19T05:48:16;101109.0;;;10.86;100.0
64453;BME280;50813;52.654;6.766;2023-03-19T05:49:52;101106.0;;;10.75;100.0
64453;BME280;50813;52.654;6.766;2023-03-19T05:51:29;101105.0;;;10.77;100.0
64453;BME280;50813;52.654;6.766;2023-03-19T05:54:43;101107.0;;;10.84;100.0
64453;BME280;50813;52.654;6.766;2023-03-19T05:56:20;101111.0;;;10.92;100.0
64453;BME280;50813;52.654;6.766;2023-03-19T05:57:57;101113.0;;;10.85;100.0
64453;BME280;50813;52.654;6.766;2023-03-19T05:59:34;101111.0;;;10.88;100.0
64453;BME280;50813;52.654;6.766;2023-03-19T06:02:46;101112.0;;;10.91;100.0
64453;BME280;50813;52.654;6.766;2023-03-19T06:04:23;101114.0;;;10.85;100.0
64453;BME280;50813;52.654;6.766;2023-03-19T06:05:59;101113.0;;;10.85;100.0
64453;BME280;50813;52.654;6.766;2023-03-19T06:09:12;101115.0;;;10.98;100.0
64453;BME280;50813;52.654;6.766;2023-03-19T06:10:49;101109.0;;;10.91;100.0
64453;BME280;50813;52.654;6.766;2023-03-19T06:12:27;101111.0;;;10.98;100.0
64453;BME280;50813;52.654;6.766;2023-03-19T06:15:41;101112.0;;;10.99;100.0
64453;BME280;50813;52.654;6.766;2023-03-19T06:17:18;101110.0;;;11.13;100.0
64453;BME280;50813;52.654;6.766;2023-03-19T06:18:54;101108.0;;;11.04;100.0
64453;BME280;50813;52.654;6.766;2023-03-19T06:20:31;101115.0;;;11.06;100.0
64453;BME280;50813;52.654;6.766;2023-03-19T06:23:44;101116.0;;;10.94;100.0
64453;BME280;50813;52.654;6.766;2023-03-19T06:25:21;101115.0;;;11.03;100.0
64453;BME280;50813;52.654;6.766;2023-03-19T06:26:57;101122.0;;;11.0;100.0
64453;BME280;50813;52.654;6.766;2023-03-19T06:30:12;101123.0;;;10.97;100.0
64453;BME280;50813;52.654;6.766;2023-03-19T06:31:49;101125.0;;;10.91;100.0
64453;BME280;50813;52.654;6.766;2023-03-19T06:33:25;101123.0;;;10.92;100.0
64453;BME280;50813;52.654;6.766;2023-03-19T06:35:03;101133.0;;;10.94;100.0
64453;BME280;50813;52.654;6.766;2023-03-19T06:38:17;101130.0;;;10.88;100.0
64453;BME280;50813;52.654;6.766;2023-03-19T06:39:53;101136.0;;;10.99;100.0
64453;BME280;50813;52.654;6.766;2023-03-19T06:41:30;101144.0;;;11.09;100.0
64453;BME280;50813;52.654;6.766;2023-03-19T06:44:43;101147.0;;;11.11;100.0
64453;BME280;50813;52.654;6.766;2023-03-19T06:46:19;101153.0;;;11.07;100.0
64453;BME280;50813;52.654;6.766;2023-03-19T06:47:56;101160.0;;;11.09;100.0
64453;BME280;50813;52.654;6.766;2023-03-19T06:51:09;101158.0;;;11.22;100.0
64453;BME280;50813;52.654;6.766;2023-03-19T06:52:45;101159.0;;;11.16;100.0
64453;BME280;50813;52.654;6.766;2023-03-19T06:54:22;101157.0;;;11.3;100.0
64453;BME280;50813;52.654;6.766;2023-03-19T06:55:59;101161.0;;;11.27;100.0
64453;BME280;50813;52.654;6.766;2023-03-19T06:59:12;101160.0;;;11.4;100.0
64453;BME280;50813;52.654;6.766;2023-03-19T07:00:49;101165.0;;;11.25;100.0
64453;BME280;50813;52.654;6.766;2023-03-19T07:02:25;101159.0;;;11.34;100.0
64453;BME280;50813;52.654;6.766;2023-03-19T07:05:38;101167.0;;;11.31;100.0
64453;BME280;50813;52.654;6.766;2023-03-19T07:07:16;101164.0;;;11.27;100.0
64453;BME280;50813;52.654;6.766;2023-03-19T07:08:53;101171.0;;;11.42;100.0
64453;BME280;50813;52.654;6.766;2023-03-19T07:12:08;101174.0;;;11.29;100.0
64453;BME280;50813;52.654;6.766;2023-03-19T07:13:45;101173.0;;;11.27;100.0
64453;BME280;50813;52.654;6.766;2023-03-19T07:15:21;101176.0;;;11.25;100.0
64453;BME280;50813;52.654;6.766;2023-03-19T07:16:58;101180.0;;;11.31;100.0
64453;BME280;50813;52.654;6.766;2023-03-19T07:20:13;101182.0;;;11.1;100.0
64453;BME280;50813;52.654;6.766;2023-03-19T07:21:50;101182.0;;;11.17;100.0
64453;BME280;50813;52.654;6.766;2023-03-19T07:23:26;101181.0;;;11.14;100.0
64453;BME280;50813;52.654;6.766;2023-03-19T07:26:39;101187.0;;;11.21;100.0
64453;BME280;50813;52.654;6.766;2023-03-19T07:28:17;101192.0;;;11.29;100.0
64453;BME280;50813;52.654;6.766;2023-03-19T07:29:53;101196.0;;;11.23;100.0
64453;BME280;50813;52.654;6.766;2023-03-19T07:31:30;101200.0;;;11.41;100.0
64453;BME280;50813;52.654;6.766;2023-03-19T07:36:20;101197.0;;;11.39;100.0
64453;BME280;50813;52.654;6.766;2023-03-19T07:37:56;101197.0;;;11.46;100.0
64453;BME280;50813;52.654;6.766;2023-03-19T07:41:09;101202.0;;;11.57;100.0
64453;BME280;50813;52.654;6.766;2023-03-19T07:42:46;101203.0;;;11.51;100.0
64453;BME280;50813;52.654;6.766;2023-03-19T07:44:22;101205.0;;;11.51;100.0
64453;BME280;50813;52.654;6.766;2023-03-19T07:47:36;101201.0;;;11.54;100.0
64453;BME280;50813;52.654;6.766;2023-03-19T07:49:12;101213.0;;;11.6;100.0
64453;BME280;50813;52.654;6.766;2023-03-19T07:50:49;101207.0;;;11.6;100.0
64453;BME280;50813;52.654;6.766;2023-03-19T07:52:26;101209.0;;;11.61;100.0
64453;BME280;50813;52.654;6.766;2023-03-19T07:55:40;101213.0;;;11.61;100.0
64453;BME280;50813;52.654;6.766;2023-03-19T07:57:18;101218.0;;;11.61;100.0
64453;BME280;50813;52.654;6.766;2023-03-19T07:58:55;101221.0;;;11.66;100.0
64453;BME280;50813;52.654;6.766;2023-03-19T08:02:09;101222.0;;;11.69;100.0
64453;BME280;50813;52.654;6.766;2023-03-19T08:03:46;101217.0;;;11.7;100.0
64453;BME280;50813;52.654;6.766;2023-03-19T08:05:22;101216.0;;;11.67;100.0
64453;BME280;50813;52.654;6.766;2023-03-19T08:08:36;101221.0;;;11.65;100.0
64453;BME280;50813;52.654;6.766;2023-03-19T08:10:13;101218.0;;;11.7;100.0
64453;BME280;50813;52.654;6.766;2023-03-19T08:11:49;101227.0;;;11.63;100.0
64453;BME280;50813;52.654;6.766;2023-03-19T08:13:26;101228.0;;;11.82;100.0
64453;BME280;50813;52.654;6.766;2023-03-19T08:16:40;101232.0;;;11.89;100.0
64453;BME280;50813;52.654;6.766;2023-03-19T08:18:16;101230.0;;;11.93;100.0
64453;BME280;50813;52.654;6.766;2023-03-19T08:19:52;101227.0;;;12.09;100.0
64453;BME280;50813;52.654;6.766;2023-03-19T08:23:05;101230.0;;;12.07;100.0
64453;BME280;50813;52.654;6.766;2023-03-19T08:24:42;101233.0;;;12.14;100.0
64453;BME280;50813;52.654;6.766;2023-03-19T08:26:18;101236.0;;;12.13;100.0
64453;BME280;50813;52.654;6.766;2023-03-19T08:29:30;101241.0;;;12.08;100.0
64453;BME280;50813;52.654;6.766;2023-03-19T08:31:07;101246.0;;;12.13;100.0
64453;BME280;50813;52.654;6.766;2023-03-19T08:32:45;101248.0;;;12.11;100.0
64453;BME280;50813;52.654;6.766;2023-03-19T08:34:22;101248.0;;;12.24;100.0
64453;BME280;50813;52.654;6.766;2023-03-19T08:37:41;101255.0;;;12.33;100.0
64453;BME280;50813;52.654;6.766;2023-03-19T08:39:18;101255.0;;;12.33;100.0
64453;BME280;50813;52.654;6.766;2023-03-19T08:40:54;101249.0;;;12.29;100.0
64453;BME280;50813;52.654;6.766;2023-03-19T08:44:07;101255.0;;;12.28;100.0
64453;BME280;50813;52.654;6.766;2023-03-19T08:45:44;101255.0;;;12.31;100.0
64453;BME280;50813;52.654;6.766;2023-03-19T08:47:21;101256.0;;;12.26;100.0
64453;BME280;50813;52.654;6.766;2023-03-19T08:48:58;101256.0;;;12.21;99.71
64453;BME280;50813;52.654;6.766;2023-03-19T08:52:12;101261.0;;;12.29;100.0
64453;BME280;50813;52.654;6.766;2023-03-19T08:53:48;101268.0;;;12.55;100.0
64453;BME280;50813;52.654;6.766;2023-03-19T08:55:24;101270.0;;;12.55;98.07
64453;BME280;50813;52.654;6.766;2023-03-19T08:58:36;101273.0;;;12.36;97.62
64453;BME280;50813;52.654;6.766;2023-03-19T09:00:15;101273.0;;;12.18;99.14
64453;BME280;50813;52.654;6.766;2023-03-19T09:01:52;101271.0;;;12.15;99.82
64453;BME280;50813;52.654;6.766;2023-03-19T09:05:07;101276.0;;;12.2;99.7
64453;BME280;50813;52.654;6.766;2023-03-19T09:06:43;101277.0;;;12.23;100.0
64453;BME280;50813;52.654;6.766;2023-03-19T09:08:19;101286.0;;;12.25;100.0
64453;BME280;50813;52.654;6.766;2023-03-19T09:09:55;101284.0;;;12.31;100.0
64453;BME280;50813;52.654;6.766;2023-03-19T09:13:08;101292.0;;;12.34;100.0
64453;BME280;50813;52.654;6.766;2023-03-19T09:14:45;101290.0;;;12.33;100.0
64453;BME280;50813;52.654;6.766;2023-03-19T09:16:21;101291.0;;;12.47;99.52
64453;BME280;50813;52.654;6.766;2023-03-19T09:19:34;101294.0;;;12.58;98.35
64453;BME280;50813;52.654;6.766;2023-03-19T09:21:10;101293.0;;;12.88;99.35
64453;BME280;50813;52.654;6.766;2023-03-19T09:22:46;101293.0;;;13.06;96.63
64453;BME280;50813;52.654;6.766;2023-03-19T09:25:59;101297.0;;;12.87;93.58
64453;BME280;50813;52.654;6.766;2023-03-19T09:27:36;101301.0;;;12.92;93.85
64453;BME280;50813;52.654;6.766;2023-03-19T09:29:13;101300.0;;;12.92;92.87
64453;BME280;50813;52.654;6.766;2023-03-19T09:30:51;101302.0;;;13.0;91.45
64453;BME280;50813;52.654;6.766;2023-03-19T09:34:05;101299.0;;;13.23;93.09
64453;BME280;50813;52.654;6.766;2023-03-19T09:35:42;101307.0;;;13.31;91.12
64453;BME280;50813;52.654;6.766;2023-03-19T09:37:19;101310.0;;;13.31;90.53
64453;BME280;50813;52.654;6.766;2023-03-19T09:40:34;101316.0;;;13.44;91.65
64453;BME280;50813;52.654;6.766;2023-03-19T09:42:24;101316.0;;;13.45;89.76
64453;BME280;50813;52.654;6.766;2023-03-19T09:44:10;101320.0;;;13.28;89.45
64453;BME280;50813;52.654;6.766;2023-03-19T09:45:47;101322.0;;;13.22;89.64
64453;BME280;50813;52.654;6.766;2023-03-19T09:49:11;101324.0;;;13.28;89.54
64453;BME280;50813;52.654;6.766;2023-03-19T09:50:51;101321.0;;;13.44;87.45
64453;BME280;50813;52.654;6.766;2023-03-19T09:52:34;101325.0;;;13.61;88.55
64453;BME280;50813;52.654;6.766;2023-03-19T09:54:24;101332.0;;;13.56;88.07
64453;BME280;50813;52.654;6.766;2023-03-19T09:59:20;101332.0;;;13.65;88.75
64453;BME280;50813;52.654;6.766;2023-03-19T10:01:00;101334.0;;;13.56;87.77
64453;BME280;50813;52.654;6.766;2023-03-19T10:02:41;101344.0;;;13.4;88.5
64453;BME280;50813;52.654;6.766;2023-03-19T10:04:47;101337.0;;;13.57;88.68
64453;BME280;50813;52.654;6.766;2023-03-19T10:06:29;101341.0;;;13.59;88.12
64453;BME280;50813;52.654;6.766;2023-03-19T10:10:24;101349.0;;;13.45;87.73
64453;BME280;50813;52.654;6.766;2023-03-19T10:12:16;101343.0;;;13.51;88.65
64453;BME280;50813;52.654;6.766;2023-03-19T10:14:13;101344.0;;;13.84;87.87
64453;BME280;50813;52.654;6.766;2023-03-19T10:15:59;101343.0;;;13.89;87.28
64453;BME280;50813;52.654;6.766;2023-03-19T10:17:39;101346.0;;;14.02;86.39
64453;BME280;50813;52.654;6.766;2023-03-19T10:19:21;101344.0;;;14.1;86.49
64453;BME280;50813;52.654;6.766;2023-03-19T10:21:18;101343.0;;;14.07;86.15
64453;BME280;50813;52.654;6.766;2023-03-19T10:24:47;101343.0;;;14.11;85.29
64453;BME280;50813;52.654;6.766;2023-03-19T10:26:28;101343.0;;;13.82;84.46
64453;BME280;50813;52.654;6.766;2023-03-19T10:28:13;101348.0;;;13.8;85.92
64453;BME280;50813;52.654;6.766;2023-03-19T10:29:49;101346.0;;;13.63;85.38
64453;BME280;50813;52.654;6.766;2023-03-19T10:31:28;101345.0;;;13.75;86.82
64453;BME280;50813;52.654;6.766;2023-03-19T10:34:57;101342.0;;;13.71;84.52
64453;BME280;50813;52.654;6.766;2023-03-19T10:36:37;101340.0;;;13.89;85.53
64453;BME280;50813;52.654;6.766;2023-03-19T10:38:19;101345.0;;;14.0;86.22
64453;BME280;50813;52.654;6.766;2023-03-19T10:39:58;101345.0;;;14.1;84.16
64453;BME280;50813;52.654;6.766;2023-03-19T10:43:24;101348.0;;;14.36;85.05
64453;BME280;50813;52.654;6.766;2023-03-19T10:45:04;101343.0;;;14.62;85.56
64453;BME280;50813;52.654;6.766;2023-03-19T10:46:57;101344.0;;;14.77;82.36
64453;BME280;50813;52.654;6.766;2023-03-19T10:48:42;101348.0;;;14.8;80.13
64453;BME280;50813;52.654;6.766;2023-03-19T10:50:22;101347.0;;;15.02;80.87
64453;BME280;50813;52.654;6.766;2023-03-19T10:53:41;101344.0;;;15.0;80.61
64453;BME280;50813;52.654;6.766;2023-03-19T10:55:23;101350.0;;;14.97;80.64
64453;BME280;50813;52.654;6.766;2023-03-19T10:57:01;101356.0;;;15.07;80.72
64453;BME280;50813;52.654;6.766;2023-03-19T10:58:37;101351.0;;;14.98;80.09
64453;BME280;50813;52.654;6.766;2023-03-19T11:01:56;101358.0;;;14.91;81.08
64453;BME280;50813;52.654;6.766;2023-03-19T11:03:35;101363.0;;;14.91;81.69
64453;BME280;50813;52.654;6.766;2023-03-19T11:05:23;101365.0;;;14.9;80.45
64453;BME280;50813;52.654;6.766;2023-03-19T11:07:04;101362.0;;;14.71;81.27
64453;BME280;50813;52.654;6.766;2023-03-19T11:10:32;101370.0;;;14.42;81.58
64453;BME280;50813;52.654;6.766;2023-03-19T11:12:16;101367.0;;;14.41;82.1